Pittsburgh, PA (15232)

7:15 PM EDT on July 03, 2015 (GMT -0400)
Shadyside | | Change Station
CLOSE
Current Station
Personal Weather Station
Location: Pittsburgh, PA
Elevation: 889 ft
Nearby Weather Stations

Elev 889 ft 40.45 °N, 79.94 °W | Updated 13 minutes ago

Overcast
Overcast
76.3 °F
Feels Like 78 °F
N
0.9
Wind Variable Wind from East
Gusts 3.0 mph

Today
High -- | Low -- °F
--% Chance of Precip.
Yesterday
High -- | Low -- °F
Precip. -- in
5:54 AM 8:53 PM
Waning Gibbous, 95% visible
Pressure 29.90 in
Visibility 8.0 miles
Clouds Scattered Clouds 2900 ft
Mostly Cloudy 5000 ft
Overcast 10000 ft
Heat Index 78 °F
Dew Point 65 °F
Humidity 69%
Rainfall 0.00 in
Snow Depth Not available.
UV 0 out of 12
Pollen 3.70 out of 12
Air Quality Not available.
Flu Activity Not available.
METAR KAGC 032253Z 17009KT 8SM -RA SCT029 BKN050 OVC100 22/16 A2990 RMK AO2 RAB28 SLP124 P0000 T02170156

More Conditions Fewer Conditions

Pressure 29.90 in
Visibility 8.0 miles
Clouds Scattered Clouds 2900 ft
Mostly Cloudy 5000 ft
Overcast 10000 ft
Heat Index 78 °F
Dew Point 65 °F
Humidity 69%
Rainfall 0.00 in
Snow Depth Not available.
UV 0 out of 12
Pollen 3.70 out of 12
Air Quality Not available.
Flu Activity Not available.
METAR KAGC 032253Z 17009KT 8SM -RA SCT029 BKN050 OVC100 22/16 A2990 RMK AO2 RAB28 SLP124 P0000 T02170156

More Conditions Fewer Conditions

10-Day Weather Forecast

×

Almanac

Astronomy

Jul. 03, 2015 Rise Set
Actual Time
Civil Twilight
Nautical Twilight
Astronomical Twilight
Moon
Length of Visible Light
Length of Day
Tomorrow will be .
, % of the Moon is Illuminated

Today's Extremes

State Highs State Lows

Community

WunderPhotos

Upload Photos

1,834,819 photos uploaded!

WunderBlogs® & News

Nearby

Air Quality

  Air Quality AQ Index Pollutant
Not available.

Snow Depth

Station Depth Elevation

Earthquake Activity

City Distance Mag. Time & Date
Minimum magnitude displayed is 2.5.

Coastal Water Temperatures

Place Temperature

Stations

Nearby Weather Stations

Station Location Temp. Windchill Dew Point Humidity Wind Precip. Elev Updated Type